1888 Depression NOT_NAMED (1888217N21088)


IBTrACS version v04r00. Visit IBTrACS website for data access.
Please direct all questions to the IBTrACS Q and A forum

Storm track - Intensity - Wind Radii - Intensity Data - Source Data - All data

Summary Information

Storm ID 1888217N21088
Start Aug 4 00Z
Landfall Aug 8 09Z
Max Intensity 30 kt (Aug 4 03Z)
End Aug 10 03Z
ATCF IDs
Track status Best track data.

Storm track plot

Map of storm track

Intensity plots

Map of storm track

Radial wind information

No radial wind information for this storm


Position and Intensity Table

BASIN ISO_TIME_________ NATURE LAT LON DS824 WIND
degrees north degrees east kts
NI 1888-08-04 00:00:00 TS 20.60 88.20 30
NI 03:00:00 TS 20.60 88.20 30
NI 06:00:00 TS 20.60 88.20 30
NI 09:00:00 TS 20.60 88.20 30
NI 12:00:00 TS 20.60 88.20 30
NI 15:00:00 TS 20.60 88.20 30
NI 18:00:00 TS 20.60 88.20 30
NI 21:00:00 TS 20.60 88.20 30
NI 1888-08-05 00:00:00 TS 20.60 88.20 30
NI 03:00:00 TS 20.60 88.20 30
NI 06:00:00 TS 20.60 88.20 30
NI 09:00:00 TS 20.60 88.20 30
NI 12:00:00 TS 20.60 88.20 30
NI 15:00:00 TS 20.60 88.20 30
NI 18:00:00 TS 20.60 88.20 30
NI 21:00:00 TS 20.60 88.20 30
NI 1888-08-06 00:00:00 TS 20.60 88.20 30
NI 03:00:00 TS 20.60 88.20 30
NI 06:00:00 TS 20.60 88.20 30
NI 09:00:00 TS 20.60 88.20 30
NI 12:00:00 TS 20.60 88.20 30
NI 15:00:00 TS 20.60 88.20 30
NI 18:00:00 TS 20.60 88.21 30
NI 21:00:00 TS 20.59 88.22 30
NI 1888-08-07 00:00:00 TS 20.59 88.21 30
NI 03:00:00 TS 20.62 88.16 30
NI 06:00:00 TS 20.66 88.07 30
NI 09:00:00 TS 20.71 87.97 30
NI 12:00:00 TS 20.76 87.86 30
NI 15:00:00 TS 20.85 87.73 30
NI 18:00:00 TS 20.94 87.60 30
NI 21:00:00 TS 21.03 87.49 30
NI 1888-08-08 00:00:00 TS 21.14 87.37 30
NI 03:00:00 TS 21.27 87.23 30
NI 06:00:00 TS 21.41 87.07 30
NI 09:00:00 TS 21.52 86.89 30
NI 12:00:00 TS 21.64 86.70 30
NI 15:00:00 TS 21.75 86.50 30
NI 18:00:00 TS 21.86 86.30 30
NI 21:00:00 TS 22.00 86.09 30
NI 1888-08-09 00:00:00 TS 22.14 85.89 30
NI 03:00:00 TS 22.25 85.72 30
NI 06:00:00 TS 22.36 85.57 30
NI 09:00:00 TS 22.50 85.42 30
NI 12:00:00 TS 22.64 85.27 30
NI 15:00:00 TS 22.75 85.12 30
NI 18:00:00 TS 22.86 84.99 30
NI 21:00:00 TS 22.99 84.84 30
NI 1888-08-10 00:00:00 TS 23.12 84.70 30
NI 03:00:00 NR 23.20 84.60

Source Information

Agency Information
USA
TOKYO
CMA
HKO
NEWDELHI
REUNION
BOM
NADI
WELLINGTON
DS824 n_ind.dat:125:NOT NAMED
TD9636 cons_worldwide_trop_cyclone_18710101-19891231-004:Line=1247
TD9635
NEUMANN
MLC

All available IBTrACS Data

SEASON BASIN SUBBASIN ISO_TIME_________ NATURE LAT LON DIST2LAND LANDFALL IFLAG USA SSHS DS824 LAT DS824 LON DS824 STAGE DS824 WIND TD9636 LAT TD9636 LON TD9636 STAGE STORM SPEED STORM DIR
Year degrees north degrees east km km 1 degrees north degrees east kts degrees north degrees east kts degrees
1888 NI BB 1888-08-04 00:00:00 TS 20.60 88.20 111 111 _________O____ -1 20.60 88.20 TC 30 0 0
1888 NI BB 03:00:00 TS 20.60 88.20 111 111 _________PO___ -1 20.60 88.20 TC 30 20.60 88.20 1 0 0
1888 NI BB 06:00:00 TS 20.60 88.20 111 111 _________OP___ -1 20.60 88.20 TC 30 20.60 88.20 1 0 0
1888 NI BB 09:00:00 TS 20.60 88.20 111 111 _________PP___ -1 20.60 88.20 TC 30 20.60 88.20 1 0 0
1888 NI BB 12:00:00 TS 20.60 88.20 111 111 _________OP___ -1 20.60 88.20 TC 30 20.60 88.20 1 0 0
1888 NI BB 15:00:00 TS 20.60 88.20 111 111 _________PO___ -1 20.60 88.20 TC 30 20.60 88.20 1 0 0
1888 NI BB 18:00:00 TS 20.60 88.20 111 111 _________OP___ -1 20.60 88.20 TC 30 20.60 88.20 1 0 0
1888 NI BB 21:00:00 TS 20.60 88.20 111 111 _________PP___ -1 20.60 88.20 TC 30 20.60 88.20 1 0 0
1888 NI BB 1888-08-05 00:00:00 TS 20.60 88.20 111 111 _________OP___ -1 20.60 88.20 TC 30 20.60 88.20 1 0 0
1888 NI BB 03:00:00 TS 20.60 88.20 111 111 _________PO___ -1 20.60 88.20 TC 30 20.60 88.20 1 0 0
1888 NI BB 06:00:00 TS 20.60 88.20 111 111 _________OP___ -1 20.60 88.20 TC 30 20.60 88.20 1 0 0
1888 NI BB 09:00:00 TS 20.60 88.20 111 111 _________PP___ -1 20.60 88.20 TC 30 20.60 88.20 1 0 0
1888 NI BB 12:00:00 TS 20.60 88.20 111 111 _________OP___ -1 20.60 88.20 TC 30 20.60 88.20 1 0 0
1888 NI BB 15:00:00 TS 20.60 88.20 111 111 _________PO___ -1 20.60 88.20 TC 30 20.60 88.20 1 0 0
1888 NI BB 18:00:00 TS 20.60 88.20 111 111 _________OP___ -1 20.60 88.20 TC 30 20.60 88.20 1 0 0
1888 NI BB 21:00:00 TS 20.60 88.20 111 111 _________PP___ -1 20.60 88.20 TC 30 20.60 88.20 1 0 0
1888 NI BB 1888-08-06 00:00:00 TS 20.60 88.20 111 111 _________OP___ -1 20.60 88.20 TC 30 20.60 88.20 1 0 0
1888 NI BB 03:00:00 TS 20.60 88.20 111 111 _________PO___ -1 20.60 88.20 TC 30 20.60 88.20 1 0 0
1888 NI BB 06:00:00 TS 20.60 88.20 111 111 _________OP___ -1 20.60 88.20 TC 30 20.60 88.20 1 0 0
1888 NI BB 09:00:00 TS 20.60 88.20 111 111 _________PP___ -1 20.60 88.20 TC 30 20.60 88.20 1 0 0
1888 NI BB 12:00:00 TS 20.60 88.20 111 111 _________OP___ -1 20.60 88.20 TC 30 20.60 88.20 1 0 0
1888 NI BB 15:00:00 TS 20.60 88.20 111 111 _________PO___ -1 20.60 88.20 TC 30 20.60 88.20 1 0 0
1888 NI BB 18:00:00 TS 20.60 88.21 111 111 _________OP___ -1 20.60 88.20 TC 30 20.59 88.22 1 0 0
1888 NI BB 21:00:00 TS 20.59 88.22 111 111 _________PP___ -1 20.59 88.21 TC 30 20.58 88.23 1 0 0
1888 NI BB 1888-08-07 00:00:00 TS 20.59 88.21 111 111 _________OP___ -1 20.60 88.20 TC 30 20.59 88.23 1 1 298
1888 NI BB 03:00:00 TS 20.62 88.16 111 101 _________PO___ -1 20.64 88.12 TC 30 20.60 88.20 1 2 298
1888 NI BB 06:00:00 TS 20.66 88.07 101 101 _________OP___ -1 20.70 88.00 TC 30 20.63 88.13 1 2 296
1888 NI BB 09:00:00 TS 20.71 87.97 102 93 _________PP___ -1 20.74 87.91 TC 30 20.67 88.04 1 2 298
1888 NI BB 12:00:00 TS 20.76 87.86 93 72 _________OP___ -1 20.80 87.80 TC 30 20.73 87.92 1 3 301
1888 NI BB 15:00:00 TS 20.85 87.73 72 63 _________PO___ -1 20.89 87.65 TC 30 20.80 87.80 1 3 305
1888 NI BB 18:00:00 TS 20.94 87.60 63 56 _________OP___ -1 21.00 87.50 TC 30 20.88 87.69 1 3 310
1888 NI BB 21:00:00 TS 21.03 87.49 56 53 _________PP___ -1 21.09 87.40 TC 30 20.98 87.57 1 3 314
1888 NI BB 1888-08-08 00:00:00 TS 21.14 87.37 53 23 _________OP___ -1 21.20 87.30 TC 30 21.08 87.44 1 3 315
1888 NI BB 03:00:00 TS 21.27 87.23 23 10 _________PO___ -1 21.35 87.17 TC 30 21.20 87.30 1 4 314
1888 NI BB 06:00:00 TS 21.41 87.07 10 0 _________OP___ -1 21.50 87.00 TC 30 21.32 87.14 1 4 308
1888 NI BB 09:00:00 TS 21.52 86.89 0 0 _________PP___ -1 21.61 86.81 TC 30 21.44 86.97 1 4 303
1888 NI BB 12:00:00 TS 21.64 86.70 0 0 _________OP___ -1 21.70 86.60 TC 30 21.57 86.79 1 4 301
1888 NI BB 15:00:00 TS 21.75 86.50 0 0 _________PO___ -1 21.79 86.40 TC 30 21.70 86.60 1 4 302
1888 NI BB 18:00:00 TS 21.86 86.30 0 0 _________OP___ -1 21.90 86.20 TC 30 21.83 86.40 1 5 304
1888 NI BB 21:00:00 TS 22.00 86.09 0 0 _________PP___ -1 22.05 85.99 TC 30 21.95 86.19 1 5 306
1888 NI BB 1888-08-09 00:00:00 TS 22.14 85.89 0 0 _________OP___ -1 22.20 85.80 TC 30 22.08 85.99 1 4 306
1888 NI BB 03:00:00 TS 22.25 85.72 0 0 _________PO___ -1 22.30 85.64 TC 30 22.20 85.80 1 4 307
1888 NI BB 06:00:00 TS 22.36 85.57 0 0 _________OP___ -1 22.40 85.50 TC 30 22.32 85.64 1 4 312
1888 NI BB 09:00:00 TS 22.50 85.42 0 0 _________PP___ -1 22.55 85.35 TC 30 22.45 85.48 1 4 315
1888 NI BB 12:00:00 TS 22.64 85.27 0 0 _________OP___ -1 22.70 85.20 TC 30 22.57 85.34 1 4 313
1888 NI BB 15:00:00 TS 22.75 85.12 0 0 _________PO___ -1 22.80 85.05 TC 30 22.70 85.20 1 3 310
1888 NI BB 18:00:00 TS 22.86 84.99 0 0 _________OP___ -1 22.90 84.90 TC 30 22.83 85.05 1 4 312
1888 NI BB 21:00:00 TS 22.99 84.84 0 0 _________PP___ -1 23.04 84.75 TC 30 22.95 84.91 1 4 315
1888 NI BB 1888-08-10 00:00:00 TS 23.12 84.70 0 0 _________OP___ -1 23.20 84.60 TC 30 23.08 84.75 1 3 314
1888 NI BB 03:00:00 NR 23.20 84.60 0 __________O___ -1 TC 23.20 84.60 1 3 312